Flight Track Log - Related Links

Times and Time Zones

All times are in EDT time to prevent confusion due to time zone crossing. See the N960DL flight status page for this flight to view local times or setup timezone preferences in your user account.

Time Position Orientation Groundspeed Altitude Reporting Facility
EDT Latitude Longitude Course Direction KTS MPH feet Rate Location/Type
Thu 09:17:53 PM 33.6514 -84.4881 340° North 442 509 2,800  Level Atlanta Center
Thu 09:18:18 PM 33.6667 -84.5167 303° West 235 270 3,800 3,035 Climbing Atlanta TRACON
Thu 09:19:00 PM 33.7928 -84.1667 North  Level FlightAware Approximate
Thu 09:19:18 PM 33.7167 -84.5833 312° West 266 306 7,100  Level Atlanta TRACON
Thu 09:20:00 PM 33.8852 -84.2185 320° Northwest  Level FlightAware Approximate
Thu 09:20:12 PM 33.7833 -84.5833 360° North 275 316 9,500  Level Atlanta TRACON
Thu 09:21:00 PM 33.9757 -84.2859 339° North  Level FlightAware Approximate
Thu 09:21:53 PM 33.9164 -84.5369 16° North 294 338 11,300  Level Atlanta Center
Thu 09:22:00 PM 34.0766 -84.3317 339° North  Level FlightAware Approximate
Thu 09:22:53 PM 34.0042 -84.5100 14° North 345 397 12,700  Level Atlanta Center
Thu 09:23:00 PM 34.1787 -84.3701 340° North  Level FlightAware Approximate
Thu 09:23:53 PM 34.1067 -84.4778 15° North 373 429 15,300  Level Atlanta Center
Thu 09:24:53 PM 34.2236 -84.4433 14° North 408 470 17,600 2,000 Climbing Atlanta Center
Thu 09:25:53 PM 34.3406 -84.4211 North 420 483 19,300 1,950 Climbing Atlanta Center
Thu 09:26:53 PM 34.4700 -84.4192 North 420 483 21,500 1,800 Climbing Atlanta Center
Thu 09:27:53 PM 34.5908 -84.4147 North 425 489 22,900 1,600 Climbing Atlanta Center
Thu 09:28:53 PM 34.7119 -84.4103 North 431 496 24,700 1,550 Climbing Atlanta Center
Thu 09:29:53 PM 34.8372 -84.4108 360° North 447 514 26,000 1,350 Climbing Atlanta Center
Thu 09:30:53 PM 34.9603 -84.4089 North 442 509 27,400 1,450 Climbing Atlanta Center
Thu 09:31:53 PM 35.0833 -84.4067 North 436 502 28,900 1,500 Climbing Atlanta Center
Thu 09:32:53 PM 35.2025 -84.4022 North 436 502 30,400 1,050 Climbing Atlanta Center
Thu 09:33:53 PM 35.3214 -84.4003 North 430 495 31,000 300 Climbing Atlanta Center
Thu 09:34:53 PM 35.4361 -84.3956 North 420 483 31,000 50 Level Atlanta Center
Thu 09:35:53 PM 35.5447 -84.3936 North 420 483 31,100 500 Climbing Atlanta Center
Thu 09:36:53 PM 35.6614 -84.3914 North 420 483 32,000 750 Climbing Atlanta Center
Thu 09:37:53 PM 35.7761 -84.3869 North 420 483 32,600 550 Climbing Atlanta Center
Thu 09:38:53 PM 35.8931 -84.3847 North 415 478 33,100 412 Climbing Atlanta Center
Thu 09:41:17 PM 36.1639 -84.3764 North 404 465 34,000 263 Climbing Indianapolis Center
Thu 09:42:18 PM 36.2764 -84.3747 North 405 466 34,000  Level Indianapolis Center
Thu 09:43:20 PM 36.3911 -84.3717 North 411 473 34,000  Level Indianapolis Center
Thu 09:44:21 PM 36.5197 -84.3706 360° North 413 475 34,000  Level Indianapolis Center
Thu 09:45:22 PM 36.6353 -84.3681 North 414 476 34,000 -634 Level Indianapolis Center
Thu 09:46:24 PM 36.7503 -84.3678 360° North 413 475 32,700 -976 Descending Indianapolis Center
Thu 09:47:25 PM 36.8636 -84.3647 North 407 468 32,000 -344 Descending Indianapolis Center
Thu 09:48:26 PM 36.9747 -84.3597 North 400 460 32,000  Level Indianapolis Center
Thu 09:49:28 PM 37.0889 -84.3556 North 409 471 32,000  Level Indianapolis Center
Thu 09:50:29 PM 37.2056 -84.3514 North 416 479 32,000  Level Indianapolis Center
Thu 09:51:30 PM 37.3408 -84.3458 North 417 480 32,000  Level Indianapolis Center
Thu 09:52:31 PM 37.4564 -84.3431 North 415 478 32,000  Level Indianapolis Center
Thu 09:53:33 PM 37.5725 -84.3394 North 414 476 32,000  Level Indianapolis Center
Thu 09:54:34 PM 37.6903 -84.3356 North 419 482 32,000 -98 Level Indianapolis Center
Thu 09:55:35 PM 37.8058 -84.3333 North 415 478 31,800 -878 Descending Indianapolis Center
Thu 09:56:37 PM 37.9186 -84.3328 360° North 405 466 30,200 -1,854 Descending Indianapolis Center
Thu 09:57:38 PM 38.0347 -84.3286 North 420 483 28,000 -1,525 Descending Indianapolis Center
Thu 09:58:39 PM 38.1536 -84.3264 North 426 490 27,100 -836 Descending Indianapolis Center
Thu 09:59:40 PM 38.2714 -84.3233 North 423 487 26,300 -1,463 Descending Indianapolis Center
Thu 10:00:42 PM 38.3883 -84.3194 North 419 482 24,100 -2,829 Descending Indianapolis Center
Thu 10:01:43 PM 38.5197 -84.3169 North 407 468 20,500 -3,000 Descending Indianapolis Center
Thu 10:02:44 PM 38.6275 -84.3158 360° North 393 452 18,000 -2,754 Descending Indianapolis Center
Thu 10:03:45 PM 38.7294 -84.3444 348° North 363 418 14,900 -2,016 Descending Indianapolis Center
Thu 10:04:46 PM 38.8247 -84.3878 340° North 356 410 13,900 -938 Descending Indianapolis Center
Thu 10:05:21 PM 38.8833 -84.4167 339° North 359 413 13,400 -1,895 Descending Cincinnati TRACON
Thu 10:06:21 PM 38.9833 -84.4167 360° North 364 419 10,900 -1,342 Descending Cincinnati TRACON
Thu 10:07:53 PM 39.1264 -84.3847 10° North 362 417 10,000 -400 Descending Indianapolis Center
Thu 10:08:51 PM 39.2214 -84.3478 17° North 367 422 9,900  Descending Indianapolis Center
Thu 10:09:06 PM 39.2456 -84.3361 20° North 370 426 10,000  Climbing Indianapolis Center
Thu 10:09:52 PM 39.3181 -84.3003 21° North 368 423 9,900 -56 Descending Indianapolis Center
Thu 10:10:54 PM 39.4150 -84.2522 21° North 369 425 9,900  Level Indianapolis Center
Thu 10:11:55 PM 39.5072 -84.2072 21° North 357 411 9,900 -197 Level Indianapolis Center
Thu 10:12:56 PM 39.5858 -84.1678 21° North 314 361 9,500 -1,033 Descending Indianapolis Center
Thu 10:13:57 PM 39.6572 -84.1311 22° Northeast 277 319 7,800 -1,640 Descending Indianapolis Center
Thu 10:15:15 PM 39.7581 -84.0844 20° North 278 320 5,700 -1,623 Descending Indianapolis Center
Thu 10:15:59 PM 39.8022 -84.0611 22° Northeast 274 315 4,500 -1,343 Descending Indianapolis Center
Thu 10:16:22 PM 39.8317 -84.0533 11° North 244 281 4,200 -783 Descending Indianapolis Center

Login

Don't have an account? Register now (free) for customized features, flight alerts, and more!